Time;durP1;ratioP1;P1;durP2;ratioP2;P2;SDS_P1;SDS_P2;PMS_P1;PMS_P2;Temp;Humidity;BMP_temperature;BMP_pressure;BME280_temperature;BME280_humidity;BME280_pressure;Samples;Min_cycle;Max_cycle;Signal;HPM_P1;HPM_P2
2023/10/04 00:01:47;;;;;;;1.50;0.70;;;;;;;14.63;100.00;97377.09;5074885;28;20231;-69
2023/10/04 00:04:14;;;;;;;1.02;0.70;;;;;;;14.66;100.00;97376.75;5075355;28;20299;-68
2023/10/04 00:06:41;;;;;;;2.10;1.02;;;;;;;14.73;100.00;97372.38;5073482;28;20246;-68
2023/10/04 00:09:09;;;;;;;1.92;1.42;;;;;;;14.77;100.00;97384.31;5076168;28;20780;-69
2023/10/04 00:11:36;;;;;;;2.22;0.90;;;;;;;14.65;100.00;97384.91;5075633;28;20216;-69
2023/10/04 00:14:03;;;;;;;0.70;0.70;;;;;;;14.62;100.00;97384.41;5076320;28;20222;-69
2023/10/04 00:16:32;;;;;;;1.57;0.93;;;;;;;14.53;100.00;97388.91;5074796;28;20199;-68
2023/10/04 00:18:58;;;;;;;1.77;0.90;;;;;;;14.55;100.00;97402.00;5075843;28;20268;-67
2023/10/04 00:21:25;;;;;;;1.13;0.80;;;;;;;14.58;100.00;97396.38;5074659;28;20227;-68
2023/10/04 00:23:52;;;;;;;1.40;0.77;;;;;;;14.42;100.00;97401.72;5075031;28;20493;-69
2023/10/04 00:26:20;;;;;;;1.75;0.90;;;;;;;14.52;100.00;97397.06;5074118;28;20312;-67
2023/10/04 00:28:46;;;;;;;1.05;0.77;;;;;;;14.43;100.00;97384.84;5075765;28;20213;-69
2023/10/04 00:31:13;;;;;;;1.02;0.93;;;;;;;14.30;100.00;97397.81;5075238;28;20234;-69
2023/10/04 00:33:40;;;;;;;3.40;0.88;;;;;;;14.27;100.00;97395.53;5074625;28;20214;-68
2023/10/04 00:36:07;;;;;;;1.60;0.70;;;;;;;14.35;100.00;97390.19;5075912;28;20204;-69
2023/10/04 00:38:34;;;;;;;1.67;0.90;;;;;;;14.36;100.00;97389.19;5074310;28;20197;-68
2023/10/04 00:41:00;;;;;;;1.00;0.80;;;;;;;14.17;100.00;97400.19;5075597;28;20318;-68
2023/10/04 00:43:28;;;;;;;1.83;0.75;;;;;;;14.24;100.00;97383.44;5075457;28;20204;-68
2023/10/04 00:45:55;;;;;;;2.07;1.10;;;;;;;14.05;100.00;97382.94;5075969;28;20291;-67
2023/10/04 00:48:29;;;;;;;1.65;1.00;;;;;;;14.13;100.00;97375.84;5073533;28;20702;-68
2023/10/04 00:50:59;;;;;;;1.58;0.80;;;;;;;13.97;100.00;97380.31;5074816;28;20204;-68
2023/10/04 00:53:28;;;;;;;1.35;1.20;;;;;;;13.98;100.00;97374.03;5075049;28;20208;-70
2023/10/04 00:55:56;;;;;;;3.03;0.95;;;;;;;13.86;100.00;97383.34;5074998;28;20266;-68
2023/10/04 00:58:23;;;;;;;2.93;1.20;;;;;;;13.84;100.00;97390.63;5074519;28;20669;-68
2023/10/04 01:00:52;;;;;;;1.30;0.77;;;;;;;13.81;100.00;97387.50;5075065;28;20555;-71
2023/10/04 01:03:19;;;;;;;2.53;0.83;;;;;;;13.76;100.00;97389.81;5074671;28;20593;-69
2023/10/04 01:05:47;;;;;;;2.17;0.60;;;;;;;13.79;100.00;97394.78;5073118;28;20204;-68
2023/10/04 01:08:15;;;;;;;1.80;0.80;;;;;;;13.76;100.00;97389.81;5074597;28;21227;-68
2023/10/04 01:10:43;;;;;;;1.03;0.80;;;;;;;13.58;100.00;97382.09;5073799;28;20212;-68
2023/10/04 01:13:10;;;;;;;1.43;0.80;;;;;;;13.55;100.00;97387.69;5074619;28;20210;-68
2023/10/04 01:15:39;;;;;;;1.60;0.80;;;;;;;13.50;100.00;97384.75;5074507;28;20290;-68
2023/10/04 01:18:09;;;;;;;4.25;1.40;;;;;;;13.67;100.00;97393.47;5074241;28;20202;-69
2023/10/04 01:20:38;;;;;;;1.20;1.10;;;;;;;13.57;100.00;97388.38;5074345;28;20204;-68
2023/10/04 01:23:09;;;;;;;2.13;0.80;;;;;;;13.82;100.00;97382.00;5074218;28;20219;-68
2023/10/04 01:25:37;;;;;;;3.67;1.23;;;;;;;13.77;100.00;97376.44;5075233;28;20203;-67
2023/10/04 01:28:07;;;;;;;1.10;1.00;;;;;;;13.70;100.00;97382.56;5073303;28;20219;-67
2023/10/04 01:30:34;;;;;;;1.37;0.70;;;;;;;13.54;100.00;97382.56;5074806;28;20203;-69
2023/10/04 01:33:03;;;;;;;2.13;0.90;;;;;;;13.46;100.00;97378.09;5074050;28;20223;-69
2023/10/04 01:35:29;;;;;;;2.60;1.23;;;;;;;13.24;100.00;97377.13;5073959;28;20435;-67
2023/10/04 01:37:56;;;;;;;1.77;1.00;;;;;;;13.28;100.00;97378.47;5074012;28;20425;-68
2023/10/04 01:40:26;;;;;;;1.70;1.00;;;;;;;13.52;100.00;97373.97;5074291;28;20219;-68
2023/10/04 01:42:52;;;;;;;1.10;0.73;;;;;;;13.38;100.00;97368.50;5074631;28;20338;-68
2023/10/04 01:45:21;;;;;;;1.77;1.03;;;;;;;13.44;100.00;97364.22;5074660;28;20208;-68
2023/10/04 01:47:49;;;;;;;2.87;0.90;;;;;;;13.27;100.00;97360.94;5074169;28;20227;-68
2023/10/04 01:50:16;;;;;;;1.80;0.63;;;;;;;13.29;100.00;97374.81;5073803;28;20203;-68
2023/10/04 01:52:45;;;;;;;1.30;0.93;;;;;;;13.00;100.00;97369.19;5074029;28;20228;-68
2023/10/04 01:55:13;;;;;;;1.53;1.07;;;;;;;13.18;100.00;97369.88;5074284;28;20224;-68
2023/10/04 01:57:43;;;;;;;5.63;0.90;;;;;;;13.03;100.00;97369.69;5074031;28;20204;-68
2023/10/04 02:00:16;;;;;;;1.93;1.10;;;;;;;12.56;100.00;97367.75;5073921;28;20302;-69
2023/10/04 02:02:44;;;;;;;1.93;0.90;;;;;;;12.64;100.00;97370.44;5075593;28;20227;-69
2023/10/04 02:05:14;;;;;;;2.27;1.00;;;;;;;12.67;100.00;97367.47;5078060;28;20674;-68
2023/10/04 02:07:40;;;;;;;3.90;1.20;;;;;;;12.71;100.00;97374.06;5077239;28;20254;-69
2023/10/04 02:10:09;;;;;;;1.57;1.17;;;;;;;12.78;100.00;97367.97;5078039;28;20215;-68
2023/10/04 02:12:36;;;;;;;3.90;1.30;;;;;;;12.79;100.00;97374.09;5077290;28;20224;-68
2023/10/04 02:15:06;;;;;;;1.00;0.80;;;;;;;12.81;100.00;97365.00;5078132;28;20204;-71
2023/10/04 02:17:32;;;;;;;3.47;1.43;;;;;;;12.71;100.00;97371.44;5076738;28;20200;-68
2023/10/04 02:19:59;;;;;;;1.37;0.90;;;;;;;12.55;100.00;97360.84;5077965;28;20223;-68
2023/10/04 02:22:28;;;;;;;2.23;1.03;;;;;;;12.56;100.00;97359.81;5076054;28;20288;-68
2023/10/04 02:24:55;;;;;;;1.57;0.93;;;;;;;12.40;100.00;97359.81;5077463;28;20243;-68
2023/10/04 02:27:27;;;;;;;5.93;1.33;;;;;;;12.35;100.00;97346.22;5077259;28;20885;-70
2023/10/04 02:29:53;;;;;;;4.23;1.17;;;;;;;12.45;100.00;97346.94;5077800;28;20230;-69
2023/10/04 02:32:21;;;;;;;1.33;0.83;;;;;;;12.52;100.00;97353.22;5077439;28;20223;-69
2023/10/04 02:34:50;;;;;;;2.87;1.23;;;;;;;12.48;100.00;97356.34;5076367;28;20200;-70
2023/10/04 02:37:17;;;;;;;1.47;0.90;;;;;;;12.32;100.00;97343.91;5077141;28;20849;-70
2023/10/04 02:39:44;;;;;;;1.67;0.83;;;;;;;12.57;100.00;97350.91;5076480;28;21010;-70
2023/10/04 02:42:11;;;;;;;2.53;0.90;;;;;;;12.24;100.00;97357.13;5078051;28;20243;-70
2023/10/04 02:44:38;;;;;;;2.00;0.73;;;;;;;12.22;100.00;97356.44;5076478;28;20673;-71
2023/10/04 02:47:07;;;;;;;1.73;0.80;;;;;;;12.41;100.00;97350.03;5077199;28;20200;-69
2023/10/04 02:49:37;;;;;;;1.73;0.80;;;;;;;12.48;100.00;97351.88;5076729;28;20203;-70
2023/10/04 02:52:05;;;;;;;1.67;0.80;;;;;;;12.20;100.00;97363.69;5076761;28;20223;-69
2023/10/04 02:54:32;;;;;;;4.03;1.53;;;;;;;12.21;100.00;97370.63;5076818;28;20200;-70
2023/10/04 02:56:59;;;;;;;1.67;1.20;;;;;;;12.12;100.00;97373.41;5076707;28;20211;-70
2023/10/04 02:59:26;;;;;;;1.60;0.90;;;;;;;12.07;100.00;97372.25;5076840;28;20977;-71
2023/10/04 03:01:53;;;;;;;1.57;1.10;;;;;;;12.15;100.00;97365.16;5076024;28;20968;-70
2023/10/04 03:04:21;;;;;;;1.37;0.80;;;;;;;12.22;100.00;97364.38;5077548;28;20192;-69
2023/10/04 03:06:51;;;;;;;1.13;0.80;;;;;;;12.23;100.00;97368.66;5075500;28;20670;-71
2023/10/04 03:09:17;;;;;;;1.73;0.80;;;;;;;12.16;100.00;97372.91;5077476;28;20220;-70
2023/10/04 03:11:44;;;;;;;1.50;1.00;;;;;;;12.22;100.00;97367.00;5075703;28;20220;-70
2023/10/04 03:14:12;;;;;;;2.47;1.00;;;;;;;12.08;100.00;97373.88;5077107;28;20211;-71
2023/10/04 03:16:41;;;;;;;2.07;0.97;;;;;;;12.00;100.00;97368.56;5075935;28;20210;-70
2023/10/04 03:19:08;;;;;;;1.57;1.03;;;;;;;12.03;100.00;97377.00;5076837;28;20199;-69
2023/10/04 03:21:37;;;;;;;1.87;1.47;;;;;;;12.02;100.00;97375.34;5075648;28;21061;-69
2023/10/04 03:24:10;;;;;;;2.37;1.30;;;;;;;12.07;100.00;97373.06;5075405;28;20200;-71
2023/10/04 03:26:36;;;;;;;1.73;1.00;;;;;;;12.00;100.00;97381.78;5075528;28;20196;-70
2023/10/04 03:29:04;;;;;;;1.27;0.80;;;;;;;11.94;100.00;97377.09;5076233;28;20331;-70
2023/10/04 03:31:31;;;;;;;1.90;0.90;;;;;;;11.70;100.00;97387.56;5077130;28;20300;-70
2023/10/04 03:33:59;;;;;;;0.80;0.70;;;;;;;11.56;100.00;97382.84;5075145;28;20196;-70
2023/10/04 03:36:25;;;;;;;1.23;0.80;;;;;;;11.65;100.00;97392.47;5076360;28;21010;-69
2023/10/04 03:38:52;;;;;;;2.77;1.10;;;;;;;11.65;100.00;97389.84;5075929;28;20527;-70
2023/10/04 03:41:20;;;;;;;1.83;1.13;;;;;;;11.63;100.00;97389.16;5076386;28;20776;-71
2023/10/04 03:43:47;;;;;;;1.33;0.90;;;;;;;11.41;100.00;97392.28;5075244;28;20208;-70
2023/10/04 03:46:18;;;;;;;1.70;0.90;;;;;;;11.45;100.00;97390.97;5078136;28;20268;-70
2023/10/04 03:48:45;;;;;;;4.83;1.50;;;;;;;11.47;100.00;97385.53;5075495;28;20223;-70
2023/10/04 03:51:13;;;;;;;1.03;0.83;;;;;;;11.46;100.00;97387.38;5076237;28;20247;-71
2023/10/04 03:53:42;;;;;;;3.57;0.97;;;;;;;11.43;100.00;97392.97;5075279;28;20241;-69
2023/10/04 03:56:10;;;;;;;4.90;1.20;;;;;;;11.39;100.00;97386.34;5075097;28;20834;-69
2023/10/04 03:58:39;;;;;;;1.93;1.20;;;;;;;11.44;100.00;97380.59;5074886;28;20199;-70
2023/10/04 04:01:07;;;;;;;1.50;0.80;;;;;;;11.37;100.00;97379.56;5075289;28;20220;-70
2023/10/04 04:03:33;;;;;;;2.50;1.63;;;;;;;11.36;100.00;97384.00;5076023;28;20236;-70
2023/10/04 04:06:00;;;;;;;1.33;0.87;;;;;;;11.51;100.00;97377.22;5075463;28;20200;-70
2023/10/04 04:08:26;;;;;;;2.57;1.20;;;;;;;11.55;100.00;97375.91;5074950;28;20401;-70
2023/10/04 04:10:53;;;;;;;1.37;0.83;;;;;;;11.60;100.00;97382.38;5076333;28;20318;-69
2023/10/04 04:13:20;;;;;;;1.53;1.03;;;;;;;11.47;100.00;97381.13;5075921;28;20399;-69
2023/10/04 04:15:48;;;;;;;1.20;0.93;;;;;;;11.46;100.00;97382.09;5075666;28;20204;-70
2023/10/04 04:18:20;;;;;;;1.13;0.90;;;;;;;11.42;100.00;97383.38;5074989;28;20211;-70
2023/10/04 04:20:47;;;;;;;2.47;0.87;;;;;;;11.47;100.00;97378.47;5075319;28;20196;-70
2023/10/04 04:23:15;;;;;;;2.33;1.10;;;;;;;11.53;100.00;97380.50;5074390;28;20210;-70
2023/10/04 04:25:41;;;;;;;1.83;0.90;;;;;;;11.39;100.00;97380.22;5074461;28;20207;-71
2023/10/04 04:28:11;;;;;;;4.70;1.67;;;;;;;11.53;100.00;97387.59;5075286;28;20227;-71
2023/10/04 04:30:39;;;;;;;3.07;1.00;;;;;;;11.47;100.00;97389.03;5075133;28;20212;-70
2023/10/04 04:33:08;;;;;;;3.53;1.67;;;;;;;11.69;100.00;97388.53;5076092;28;20199;-70
2023/10/04 04:35:47;;;;;;;1.90;1.20;;;;;;;11.57;100.00;97389.78;5074620;28;20295;-70
2023/10/04 04:38:19;;;;;;;1.63;1.20;;;;;;;11.65;100.00;97387.19;5075550;28;20254;-70
2023/10/04 04:40:48;;;;;;;1.50;1.20;;;;;;;11.56;100.00;97393.41;5073986;28;20702;-69
2023/10/04 04:43:25;;;;;;;1.77;1.10;;;;;;;11.52;100.00;97381.50;5076863;28;20211;-71
2023/10/04 04:45:54;;;;;;;1.50;1.00;;;;;;;11.55;100.00;97387.28;5074918;28;20579;-70
2023/10/04 04:48:23;;;;;;;2.70;1.43;;;;;;;11.45;100.00;97388.34;5075394;28;20223;-70
2023/10/04 04:50:51;;;;;;;3.60;1.50;;;;;;;11.34;100.00;97388.63;5074708;28;20203;-70
2023/10/04 04:53:21;;;;;;;1.77;1.20;;;;;;;11.28;100.00;97393.69;5075167;28;20195;-69
2023/10/04 04:55:48;;;;;;;2.60;0.90;;;;;;;11.27;100.00;97395.47;5074069;28;20265;-70
2023/10/04 04:58:14;;;;;;;2.30;1.50;;;;;;;11.15;100.00;97391.44;5075949;28;20200;-70
2023/10/04 05:00:43;;;;;;;2.37;1.20;;;;;;;11.17;100.00;97391.25;5073886;28;20235;-70
2023/10/04 05:03:10;;;;;;;2.70;1.50;;;;;;;11.24;100.00;97389.66;5075615;28;20831;-70
2023/10/04 05:05:39;;;;;;;3.60;1.90;;;;;;;11.38;100.00;97384.69;5074687;28;20545;-70
2023/10/04 05:08:06;;;;;;;4.10;2.07;;;;;;;11.28;100.00;97385.75;5073787;28;20206;-68
2023/10/04 05:10:38;;;;;;;4.90;2.07;;;;;;;11.31;100.00;97394.19;5075129;28;20211;-69
2023/10/04 05:13:07;;;;;;;3.30;1.97;;;;;;;11.27;100.00;97392.84;5075158;28;20214;-69
2023/10/04 05:15:35;;;;;;;4.20;2.00;;;;;;;11.24;100.00;97387.88;5074737;28;20207;-68
2023/10/04 05:18:10;;;;;;;3.20;2.00;;;;;;;11.18;100.00;97393.75;5074868;28;20646;-70
2023/10/04 05:20:41;;;;;;;5.97;2.00;;;;;;;11.22;100.00;97395.09;5074837;28;20206;-69
2023/10/04 05:23:09;;;;;;;6.20;2.50;;;;;;;11.20;100.00;97389.16;5074212;28;20215;-70
2023/10/04 05:25:35;;;;;;;7.33;2.50;;;;;;;11.24;100.00;97389.66;5075358;28;20580;-70
2023/10/04 05:28:04;;;;;;;3.40;2.03;;;;;;;11.27;100.00;97397.28;5074808;28;20873;-70
2023/10/04 05:30:31;;;;;;;4.13;2.60;;;;;;;11.11;100.00;97405.91;5074921;28;20737;-71
2023/10/04 05:32:57;;;;;;;3.73;2.03;;;;;;;11.17;100.00;97405.28;5074477;28;21206;-70
2023/10/04 05:35:24;;;;;;;5.37;2.43;;;;;;;11.30;100.00;97412.81;5074596;28;20204;-70
2023/10/04 05:37:53;;;;;;;7.87;2.47;;;;;;;11.40;100.00;97414.38;5076654;28;20204;-69
2023/10/04 05:40:25;;;;;;;5.87;2.27;;;;;;;11.32;100.00;97410.84;5078067;28;20192;-70
2023/10/04 05:42:53;;;;;;;4.60;2.53;;;;;;;11.44;100.00;97410.44;5078782;28;20216;-70
2023/10/04 05:45:20;;;;;;;3.10;1.97;;;;;;;11.49;100.00;97416.09;5078127;28;20196;-69
2023/10/04 05:47:48;;;;;;;4.57;2.50;;;;;;;11.51;100.00;97419.44;5077173;28;20208;-69
2023/10/04 05:50:17;;;;;;;6.13;1.87;;;;;;;11.61;100.00;97418.34;5078766;28;21325;-68
2023/10/04 05:52:44;;;;;;;5.73;2.00;;;;;;;11.57;100.00;97424.13;5077964;28;20227;-69
2023/10/04 05:55:13;;;;;;;5.53;2.50;;;;;;;11.76;100.00;97426.53;5078740;28;20587;-70
2023/10/04 05:57:39;;;;;;;7.03;2.30;;;;;;;11.65;100.00;97429.44;5077302;28;20210;-69
2023/10/04 06:00:22;;;;;;;3.80;1.97;;;;;;;11.85;100.00;97425.59;5078762;28;20669;-69
2023/10/04 06:02:50;;;;;;;4.73;2.40;;;;;;;11.88;100.00;97428.75;5076883;28;20274;-69
2023/10/04 06:05:16;;;;;;;4.27;2.87;;;;;;;11.81;100.00;97427.75;5078401;28;20200;-68
2023/10/04 06:07:43;;;;;;;4.47;1.93;;;;;;;11.82;100.00;97423.28;5072792;28;20200;-69
2023/10/04 06:10:11;;;;;;;10.33;2.53;;;;;;;11.86;100.00;97432.53;5075230;28;20812;-69
2023/10/04 06:12:39;;;;;;;3.30;2.10;;;;;;;12.06;100.00;97423.41;5073731;28;20504;-69
2023/10/04 06:15:10;;;;;;;4.07;1.80;;;;;;;12.12;100.00;97428.06;5076666;28;20221;-69
2023/10/04 06:17:38;;;;;;;3.30;1.60;;;;;;;12.15;100.00;97435.69;5075582;28;20207;-69
2023/10/04 06:20:22;;;;;;;6.47;2.47;;;;;;;12.16;100.00;97427.59;5075989;28;20754;-68
2023/10/04 06:22:50;;;;;;;2.97;1.57;;;;;;;12.04;100.00;97430.66;5074071;28;20232;-70
2023/10/04 06:25:17;;;;;;;5.23;2.10;;;;;;;12.17;100.00;97438.00;5075420;28;20235;-71
2023/10/04 06:27:45;;;;;;;3.20;1.90;;;;;;;12.47;100.00;97432.19;5074103;28;20294;-70
2023/10/04 06:30:12;;;;;;;3.90;2.13;;;;;;;12.50;100.00;97434.53;5075861;28;20215;-70
2023/10/04 06:32:39;;;;;;;4.00;2.30;;;;;;;12.47;100.00;97429.53;5075410;28;21037;-69
2023/10/04 06:35:08;;;;;;;3.63;2.50;;;;;;;12.56;100.00;97417.19;5074304;28;20208;-69
2023/10/04 06:37:36;;;;;;;6.13;2.70;;;;;;;12.60;100.00;97429.94;5074777;28;20196;-69
2023/10/04 06:40:04;;;;;;;4.47;2.53;;;;;;;12.81;100.00;97427.66;5073065;28;20256;-69
2023/10/04 06:42:31;;;;;;;7.30;2.50;;;;;;;12.85;100.00;97431.63;5076407;28;20318;-69
2023/10/04 06:44:59;;;;;;;3.93;2.20;;;;;;;13.18;100.00;97425.44;5075503;28;20362;-69
2023/10/04 06:47:27;;;;;;;5.30;2.57;;;;;;;13.17;100.00;97437.03;5076527;28;20215;-69
2023/10/04 06:49:53;;;;;;;6.63;3.33;;;;;;;13.22;100.00;97437.38;5074382;28;20225;-69
2023/10/04 06:52:20;;;;;;;7.27;3.67;;;;;;;13.15;100.00;97444.28;5072078;28;20223;-69
2023/10/04 06:54:47;;;;;;;8.60;4.23;;;;;;;13.28;100.00;97442.00;5072675;28;20203;-69
2023/10/04 06:57:13;;;;;;;5.57;3.33;;;;;;;13.38;100.00;97443.50;5074393;28;20200;-70
2023/10/04 06:59:40;;;;;;;8.47;3.07;;;;;;;13.44;100.00;97454.25;5073242;28;20223;-69
2023/10/04 07:02:09;;;;;;;6.10;2.83;;;;;;;13.43;100.00;97452.59;5073368;28;20740;-69
2023/10/04 07:04:36;;;;;;;6.20;3.07;;;;;;;13.40;100.00;97447.63;5074874;28;20947;-69
2023/10/04 07:07:02;;;;;;;6.57;3.00;;;;;;;13.50;100.00;97448.31;5073643;28;20199;-69
2023/10/04 07:09:29;;;;;;;5.87;3.37;;;;;;;13.38;100.00;97453.25;5074499;28;20231;-70
2023/10/04 07:11:55;;;;;;;5.67;2.60;;;;;;;13.51;100.00;97455.22;5073758;28;20254;-70
2023/10/04 07:14:22;;;;;;;3.97;1.90;;;;;;;13.52;100.00;97454.25;5073725;28;20956;-70
2023/10/04 07:16:49;;;;;;;4.30;1.85;;;;;;;13.63;100.00;97464.53;5072677;28;20204;-70
2023/10/04 07:19:16;;;;;;;8.07;2.43;;;;;;;13.78;100.00;97456.72;5074965;28;20226;-70
2023/10/04 07:21:43;;;;;;;3.90;2.17;;;;;;;13.65;100.00;97457.22;5073103;28;20765;-69
2023/10/04 07:24:10;;;;;;;3.90;1.83;;;;;;;13.87;100.00;97455.72;5074968;28;20204;-70
2023/10/04 07:26:36;;;;;;;3.83;2.00;;;;;;;13.91;100.00;97471.09;5072048;28;20211;-70
2023/10/04 07:29:03;;;;;;;3.27;1.97;;;;;;;14.02;100.00;97466.28;5075016;28;21341;-70
2023/10/04 07:31:31;;;;;;;3.70;2.13;;;;;;;14.18;100.00;97465.47;5074612;28;20223;-70
2023/10/04 07:33:57;;;;;;;5.23;3.03;;;;;;;14.28;100.00;97461.63;5075100;28;20323;-70
2023/10/04 07:36:25;;;;;;;4.47;2.37;;;;;;;14.62;100.00;97464.00;5074543;28;20200;-70
2023/10/04 07:38:52;;;;;;;3.23;1.53;;;;;;;14.27;100.00;97461.81;5074647;28;20203;-70
2023/10/04 07:41:18;;;;;;;4.40;1.93;;;;;;;14.53;100.00;97470.34;5074349;28;20219;-70
2023/10/04 07:43:45;;;;;;;2.77;1.63;;;;;;;14.66;100.00;97466.97;5075851;28;20242;-71
2023/10/04 07:46:11;;;;;;;3.88;1.70;;;;;;;14.63;100.00;97463.81;5074291;28;20196;-70
2023/10/04 07:48:38;;;;;;;3.87;2.00;;;;;;;14.55;100.00;97461.22;5074667;28;20208;-70
2023/10/04 07:51:05;;;;;;;4.82;1.77;;;;;;;14.82;100.00;97458.91;5075036;28;20721;-70
2023/10/04 07:53:33;;;;;;;3.35;1.52;;;;;;;14.96;100.00;97458.19;5074109;28;20203;-70
2023/10/04 07:56:00;;;;;;;2.22;1.60;;;;;;;14.95;100.00;97461.00;5074430;28;20837;-71
2023/10/04 07:58:27;;;;;;;3.33;1.50;;;;;;;15.30;100.00;97462.16;5075562;28;20200;-70
2023/10/04 08:00:54;;;;;;;4.03;1.50;;;;;;;15.06;100.00;97464.09;5075415;28;20204;-70
2023/10/04 08:03:20;;;;;;;2.33;1.33;;;;;;;15.26;100.00;97465.31;5073076;28;20199;-70
2023/10/04 08:05:47;;;;;;;3.50;1.52;;;;;;;15.18;100.00;97464.53;5074709;28;20590;-71
2023/10/04 08:08:13;;;;;;;4.57;1.70;;;;;;;15.20;100.00;97463.34;5073211;28;20203;-70
2023/10/04 08:10:41;;;;;;;3.97;1.65;;;;;;;15.39;100.00;97470.91;5073058;28;20775;-70
2023/10/04 08:13:10;;;;;;;1.92;1.20;;;;;;;15.42;100.00;97468.69;5073579;28;20197;-70
2023/10/04 08:15:37;;;;;;;3.45;1.27;;;;;;;15.59;100.00;97467.59;5073958;28;20261;-71
2023/10/04 08:18:04;;;;;;;4.28;1.45;;;;;;;15.70;100.00;97466.34;5073434;28;20204;-71
2023/10/04 08:20:32;;;;;;;3.15;1.40;;;;;;;15.80;100.00;97470.41;5073846;28;20203;-70
2023/10/04 08:22:59;;;;;;;2.97;1.42;;;;;;;15.93;100.00;97474.06;5075268;28;20227;-71
2023/10/04 08:25:27;;;;;;;3.15;1.38;;;;;;;15.97;100.00;97478.06;5075080;28;20211;-71
2023/10/04 08:27:56;;;;;;;4.03;1.63;;;;;;;16.20;100.00;97481.47;5074894;28;20648;-71
2023/10/04 08:30:25;;;;;;;4.05;1.55;;;;;;;16.21;100.00;97471.66;5075795;28;20224;-71
2023/10/04 08:32:52;;;;;;;5.15;1.48;;;;;;;16.33;100.00;97470.22;5075543;28;20235;-71
2023/10/04 08:35:24;;;;;;;3.05;1.35;;;;;;;16.27;100.00;97463.81;5074879;28;20291;-71
2023/10/04 08:37:53;;;;;;;2.70;1.10;;;;;;;16.46;100.00;97463.28;5074085;28;20210;-71
2023/10/04 08:40:20;;;;;;;2.70;1.25;;;;;;;16.53;100.00;97469.50;5069758;28;20199;-71
2023/10/04 08:42:50;;;;;;;1.75;1.08;;;;;;;16.50;100.00;97468.03;5070519;28;20866;-71
2023/10/04 08:45:18;;;;;;;5.40;1.58;;;;;;;16.48;100.00;97466.56;5071941;28;20204;-71
2023/10/04 08:47:50;;;;;;;3.05;0.90;;;;;;;16.65;100.00;97462.72;5070309;28;20199;-70
2023/10/04 08:50:22;;;;;;;1.25;0.95;;;;;;;16.75;100.00;97456.09;5073421;28;20262;-71
2023/10/04 08:52:53;;;;;;;1.65;0.98;;;;;;;16.54;100.00;97448.03;5072058;28;20584;-70
2023/10/04 08:55:25;;;;;;;1.67;0.90;;;;;;;16.72;100.00;97455.63;5074151;28;20203;-70
2023/10/04 08:57:53;;;;;;;1.73;1.08;;;;;;;16.65;100.00;97462.72;5066980;28;20204;-70
2023/10/04 09:00:28;;;;;;;2.20;0.98;;;;;;;16.82;100.00;97464.16;5070765;28;20195;-70
2023/10/04 09:02:56;;;;;;;2.38;1.27;;;;;;;16.96;100.00;97450.81;5069609;28;20230;-71
2023/10/04 09:05:23;;;;;;;3.20;0.90;;;;;;;17.00;100.00;97451.28;5070159;28;20209;-71
2023/10/04 09:07:50;;;;;;;1.85;0.80;;;;;;;17.07;100.00;97454.84;5070752;28;20203;-70
2023/10/04 09:10:19;;;;;;;1.33;0.70;;;;;;;17.08;87.76;97455.47;5072566;28;20224;-71
2023/10/04 09:12:47;;;;;;;1.20;0.60;;;;;;;17.14;88.30;97452.06;5073687;28;20215;-71
2023/10/04 09:15:14;;;;;;;1.13;0.63;;;;;;;17.25;88.78;97462.25;5074741;28;20196;-71
2023/10/04 09:17:47;;;;;;;3.00;0.60;;;;;;;17.32;85.87;97452.50;5075708;28;20200;-71
2023/10/04 09:20:16;;;;;;;2.30;1.13;;;;;;;17.42;87.65;97455.66;5072816;28;20196;-71
2023/10/04 09:22:43;;;;;;;1.48;0.88;;;;;;;17.33;86.18;97459.47;5072715;28;20238;-71
2023/10/04 09:25:10;;;;;;;0.98;0.47;;;;;;;17.39;83.86;97448.06;5072660;28;20200;-71
2023/10/04 09:27:37;;;;;;;2.55;0.95;;;;;;;17.36;84.11;97447.59;5074628;28;20211;-71
2023/10/04 09:30:21;;;;;;;1.23;0.80;;;;;;;17.68;89.44;97439.94;5072975;28;20221;-71
2023/10/04 09:32:51;;;;;;;3.80;0.90;;;;;;;17.62;90.56;97440.69;5074589;28;20215;-71
2023/10/04 09:35:18;;;;;;;4.07;0.93;;;;;;;17.53;93.70;97439.19;5075164;28;20477;-71
2023/10/04 09:37:45;;;;;;;1.48;0.77;;;;;;;17.45;95.20;97438.47;5075594;28;20214;-71
2023/10/04 09:40:15;;;;;;;4.35;0.80;;;;;;;17.85;91.92;97439.47;5075077;28;20476;-71
2023/10/04 09:42:46;;;;;;;3.13;0.70;;;;;;;17.93;90.83;97433.16;5076171;28;20231;-71
2023/10/04 09:45:14;;;;;;;2.92;1.02;;;;;;;17.84;91.67;97424.47;5077018;28;20219;-71
2023/10/04 09:47:40;;;;;;;2.55;0.65;;;;;;;17.89;92.39;97423.91;5077358;28;20354;-71
2023/10/04 09:50:12;;;;;;;1.45;0.60;;;;;;;17.94;89.72;97418.81;5076874;28;20372;-71
2023/10/04 09:52:38;;;;;;;2.25;0.77;;;;;;;17.89;89.86;97421.25;5076926;28;20648;-71
2023/10/04 09:55:08;;;;;;;0.50;0.50;;;;;;;17.85;90.03;97419.97;5076947;28;20200;-71
2023/10/04 09:57:37;;;;;;;3.28;1.00;;;;;;;18.03;91.91;97417.66;5076959;28;20652;-71
2023/10/04 10:00:12;;;;;;;2.15;0.90;;;;;;;18.29;86.23;97409.84;5075828;28;20359;-71
2023/10/04 10:02:41;;;;;;;1.55;0.65;;;;;;;18.38;84.96;97415.66;5078144;28;20234;-71
2023/10/04 10:05:11;;;;;;;1.90;0.90;;;;;;;17.88;81.20;97419.59;5077481;28;20196;-71
2023/10/04 10:07:41;;;;;;;1.10;0.60;;;;;;;18.15;82.42;97426.75;5076687;28;20587;-71
2023/10/04 10:10:11;;;;;;;2.00;0.60;;;;;;;18.09;81.84;97423.03;5077038;28;20226;-71
2023/10/04 10:12:39;;;;;;;1.33;1.02;;;;;;;18.43;80.56;97417.72;5077947;28;20306;-71
2023/10/04 10:15:07;;;;;;;1.48;0.80;;;;;;;18.52;79.51;97420.06;5077310;28;20397;-71
2023/10/04 10:17:35;;;;;;;2.92;0.40;;;;;;;18.48;83.74;97420.63;5078085;28;20257;-71
2023/10/04 10:20:04;;;;;;;1.00;0.65;;;;;;;18.58;90.95;97413.94;5076355;28;20253;-71
2023/10/04 10:22:32;;;;;;;2.08;0.57;;;;;;;18.69;90.91;97424.03;5077608;28;20224;-70
2023/10/04 10:25:14;;;;;;;1.25;0.63;;;;;;;18.52;86.38;97428.06;5075848;28;20305;-71
2023/10/04 10:27:43;;;;;;;2.15;0.90;;;;;;;18.63;81.82;97418.66;5076127;28;21137;-71
2023/10/04 10:30:12;;;;;;;5.78;0.85;;;;;;;18.70;83.60;97415.00;5077105;28;20306;-71
2023/10/04 10:32:50;;;;;;;1.95;0.88;;;;;;;19.01;83.65;97412.66;5076141;28;20224;-71
2023/10/04 10:35:52;;;;;;;1.05;0.70;;;;;;;19.29;82.46;97414.19;5076804;28;20203;-72
2023/10/04 10:38:31;;;;;;;0.85;0.60;;;;;;;19.08;80.72;97409.03;5076560;28;20203;-71
2023/10/04 10:40:57;;;;;;;1.38;0.80;;;;;;;18.58;82.27;97407.75;5075993;28;20321;-71
2023/10/04 10:43:24;;;;;;;1.70;0.88;;;;;;;18.65;82.38;97414.78;5075986;28;20200;-71
2023/10/04 10:45:51;;;;;;;1.27;0.50;;;;;;;18.57;84.89;97403.44;5076503;28;20200;-71
2023/10/04 10:48:17;;;;;;;1.50;0.52;;;;;;;18.67;83.59;97399.41;5075643;28;20199;-71
2023/10/04 10:50:44;;;;;;;1.60;0.70;;;;;;;18.92;81.63;97392.50;5075659;28;20935;-71
2023/10/04 10:53:11;;;;;;;1.48;0.65;;;;;;;18.87;82.33;97394.94;5075064;28;20204;-71
2023/10/04 10:55:40;;;;;;;1.65;0.50;;;;;;;18.97;82.17;97387.38;5075204;28;20651;-72
2023/10/04 10:58:07;;;;;;;1.33;0.50;;;;;;;18.97;85.32;97387.38;5075437;28;21052;-72
2023/10/04 11:00:35;;;;;;;4.32;0.73;;;;;;;19.18;85.32;97392.59;5077686;28;20198;-72
2023/10/04 11:03:09;;;;;;;1.08;0.40;;;;;;;19.30;83.01;97389.13;5076139;28;20220;-71
2023/10/04 11:05:35;;;;;;;0.50;0.40;;;;;;;18.80;82.47;97394.09;5076784;28;20204;-71
2023/10/04 11:08:06;;;;;;;1.30;0.60;;;;;;;18.88;82.20;97393.09;5075416;28;20207;-71
2023/10/04 11:10:34;;;;;;;1.10;0.57;;;;;;;18.85;80.32;97391.66;5077328;28;20764;-71
2023/10/04 11:13:04;;;;;;;0.95;0.52;;;;;;;19.00;82.88;97394.97;5067380;28;20787;-71
2023/10/04 11:15:31;;;;;;;0.98;0.57;;;;;;;18.74;78.71;97389.53;5073766;28;20238;-71
2023/10/04 11:17:57;;;;;;;2.28;0.50;;;;;;;18.69;79.50;97388.50;5074034;28;20699;-71
2023/10/04 11:20:24;;;;;;;1.45;0.93;;;;;;;18.87;82.56;97389.59;5075909;28;20202;-71
2023/10/04 11:22:51;;;;;;;0.90;0.50;;;;;;;18.45;82.54;97389.00;5073595;28;20232;-71
2023/10/04 11:25:17;;;;;;;0.75;0.52;;;;;;;18.60;81.31;97387.84;5074467;28;21076;-71
2023/10/04 11:27:47;;;;;;;3.08;0.47;;;;;;;18.83;75.76;97383.00;5075296;28;20311;-71
2023/10/04 11:30:17;;;;;;;1.02;0.50;;;;;;;18.78;75.02;97381.97;5075324;28;20224;-71
2023/10/04 11:32:46;;;;;;;0.60;0.40;;;;;;;18.77;72.73;97380.31;5074758;28;20269;-71